createdAt,value
2023-09-02T18:47:33.473Z,22.96
2023-09-02T18:49:59.999Z,23.13
2023-09-02T18:52:26.579Z,23.19
2023-09-02T18:54:53.105Z,23.16
2023-09-02T18:57:19.630Z,23.23
2023-09-02T18:59:46.132Z,23.29
2023-09-02T19:02:12.605Z,23.30
2023-09-02T19:04:39.291Z,23.20
2023-09-02T19:07:05.868Z,23.04
2023-09-02T19:09:32.401Z,23.03
2023-09-02T19:11:58.988Z,23.10
2023-09-02T19:14:25.519Z,23.20
2023-09-02T19:16:52.143Z,23.10
2023-09-02T19:19:18.677Z,23.08
2023-09-02T19:21:45.153Z,23.16
2023-09-02T19:24:11.691Z,23.26
2023-09-02T19:26:38.276Z,23.26
2023-09-02T19:29:04.764Z,23.25
2023-09-02T19:31:31.291Z,23.28
2023-09-02T19:33:57.789Z,23.26
2023-09-02T19:36:28.928Z,23.28
2023-09-02T19:38:57.931Z,23.31
2023-09-02T19:41:26.291Z,23.31
2023-09-02T19:43:52.803Z,23.11
2023-09-02T19:46:19.324Z,23.01
2023-09-02T19:48:45.937Z,23.11
2023-09-02T19:51:15.848Z,23.14
2023-09-02T19:53:42.560Z,23.22
2023-09-02T19:56:12.134Z,23.43
2023-09-02T19:58:46.747Z,23.48
2023-09-02T20:01:20.240Z,23.57
2023-09-02T20:03:46.825Z,23.32
2023-09-02T20:06:16.643Z,23.27
2023-09-02T20:08:43.390Z,23.18
2023-09-02T20:11:09.989Z,23.32
2023-09-02T20:13:36.836Z,23.32
2023-09-02T20:16:05.088Z,23.32
2023-09-02T20:18:34.578Z,23.33
2023-09-02T20:21:01.153Z,23.36
2023-09-02T20:23:27.815Z,23.31
2023-09-02T20:25:54.395Z,23.31
2023-09-02T20:28:21.871Z,23.37
2023-09-02T20:30:52.273Z,23.42
2023-09-02T20:33:18.947Z,23.36
2023-09-02T20:35:45.451Z,23.42
2023-09-02T20:38:11.971Z,23.50
2023-09-02T20:40:42.040Z,23.54
2023-09-02T20:43:14.978Z,23.63
2023-09-02T20:45:43.228Z,23.53
2023-09-02T20:48:10.589Z,23.44
2023-09-02T20:50:40.907Z,23.52
2023-09-02T20:53:08.336Z,23.57
2023-09-02T20:55:34.970Z,23.54
2023-09-02T20:58:01.477Z,23.52
2023-09-02T21:00:28.132Z,23.52
2023-09-02T21:02:55.798Z,23.54
2023-09-02T21:05:28.313Z,23.55
2023-09-02T21:07:54.843Z,23.50
2023-09-02T21:10:21.312Z,23.52
2023-09-02T21:12:47.821Z,23.48
2023-09-02T21:15:14.556Z,23.51
2023-09-02T21:17:41.162Z,23.51
2023-09-02T21:20:08.216Z,23.47
2023-09-02T21:22:37.336Z,23.51
2023-09-02T21:25:07.247Z,23.35
2023-09-02T21:27:34.419Z,23.32
2023-09-02T21:30:01.733Z,23.55
2023-09-02T21:32:29.503Z,23.58
2023-09-02T21:34:57.538Z,23.58
2023-09-02T21:37:24.509Z,23.58
2023-09-02T21:39:51.033Z,23.46
2023-09-02T21:42:17.640Z,23.44
2023-09-02T21:44:44.306Z,23.57
2023-09-02T21:47:10.811Z,23.58
2023-09-02T21:49:37.385Z,23.55
2023-09-02T21:52:04.097Z,23.31
2023-09-02T21:54:30.637Z,23.53
2023-09-02T21:56:57.122Z,23.59
2023-09-02T21:59:23.668Z,23.53
2023-09-02T22:01:50.229Z,23.55
2023-09-02T22:04:16.776Z,23.62
2023-09-02T22:06:43.321Z,23.58
2023-09-02T22:09:09.920Z,23.62
2023-09-02T22:11:36.445Z,23.50
2023-09-02T22:14:02.962Z,23.49
2023-09-02T22:16:29.544Z,23.61
2023-09-02T22:19:09.028Z,23.67
2023-09-02T22:21:39.167Z,23.67
2023-09-02T22:24:07.573Z,23.62
2023-09-02T22:26:34.061Z,23.62
2023-09-02T22:29:00.582Z,23.60
2023-09-02T22:31:27.163Z,23.52
2023-09-02T22:33:53.767Z,23.54
2023-09-02T22:36:20.264Z,23.52
2023-09-02T22:41:16.113Z,23.51
2023-09-02T22:43:42.761Z,23.46
2023-09-02T22:46:09.979Z,23.55
2023-09-02T22:48:36.685Z,23.48
2023-09-02T22:51:07.338Z,23.57
2023-09-02T22:53:34.147Z,23.48
2023-09-02T22:56:00.676Z,23.53
2023-09-02T22:58:27.178Z,23.55
2023-09-02T23:00:53.765Z,23.62
2023-09-02T23:03:21.190Z,23.59
2023-09-02T23:05:48.241Z,23.53
2023-09-02T23:08:14.806Z,23.54
2023-09-02T23:10:42.164Z,23.57
2023-09-02T23:13:08.645Z,23.59
2023-09-02T23:15:36.388Z,23.59
2023-09-02T23:18:03.157Z,23.62
2023-09-02T23:20:30.200Z,23.65
2023-09-02T23:22:56.883Z,23.70
2023-09-02T23:25:25.455Z,23.66
2023-09-02T23:27:53.105Z,23.63
2023-09-02T23:30:20.319Z,23.58
2023-09-02T23:32:51.478Z,23.62
2023-09-02T23:35:18.466Z,23.60
2023-09-02T23:37:46.148Z,23.59
2023-09-02T23:40:16.077Z,23.53
2023-09-02T23:42:43.861Z,23.57
2023-09-02T23:45:12.210Z,23.66
2023-09-02T23:47:38.952Z,23.66
2023-09-02T23:50:06.175Z,23.58
2023-09-02T23:52:34.355Z,23.63
2023-09-02T23:55:01.407Z,23.61
2023-09-02T23:57:27.909Z,23.61
2023-09-02T23:59:54.947Z,23.62
